sensor_id;sensor_type;location;lat;lon;timestamp;P1;durP1;ratioP1;P2;durP2;ratioP2
23404;SDS011;11875;49.356;2.718;2022-10-13T00:00:33;29.13;;;15.33;;
23404;SDS011;11875;49.356;2.718;2022-10-13T00:02:59;23.60;;;14.30;;
23404;SDS011;11875;49.356;2.718;2022-10-13T00:05:26;28.83;;;16.67;;
23404;SDS011;11875;49.356;2.718;2022-10-13T00:07:52;28.77;;;16.00;;
23404;SDS011;11875;49.356;2.718;2022-10-13T00:10:17;26.43;;;14.87;;
23404;SDS011;11875;49.356;2.718;2022-10-13T00:12:43;30.70;;;15.27;;
23404;SDS011;11875;49.356;2.718;2022-10-13T00:15:08;26.90;;;14.43;;
23404;SDS011;11875;49.356;2.718;2022-10-13T00:17:34;30.23;;;15.77;;
23404;SDS011;11875;49.356;2.718;2022-10-13T00:20:00;27.80;;;14.20;;
23404;SDS011;11875;49.356;2.718;2022-10-13T00:22:30;23.87;;;13.97;;
23404;SDS011;11875;49.356;2.718;2022-10-13T00:24:56;22.33;;;13.90;;
23404;SDS011;11875;49.356;2.718;2022-10-13T00:27:22;21.53;;;13.00;;
23404;SDS011;11875;49.356;2.718;2022-10-13T00:29:47;25.13;;;13.13;;
23404;SDS011;11875;49.356;2.718;2022-10-13T00:32:13;22.13;;;14.20;;
23404;SDS011;11875;49.356;2.718;2022-10-13T00:34:39;25.27;;;13.00;;
23404;SDS011;11875;49.356;2.718;2022-10-13T00:37:05;18.57;;;12.67;;
23404;SDS011;11875;49.356;2.718;2022-10-13T00:39:31;23.70;;;13.37;;
23404;SDS011;11875;49.356;2.718;2022-10-13T00:41:57;24.90;;;13.63;;
23404;SDS011;11875;49.356;2.718;2022-10-13T00:47:34;19.67;;;12.00;;
23404;SDS011;11875;49.356;2.718;2022-10-13T00:50:02;21.63;;;12.27;;
23404;SDS011;11875;49.356;2.718;2022-10-13T00:52:29;21.73;;;12.93;;
23404;SDS011;11875;49.356;2.718;2022-10-13T00:54:57;25.40;;;13.13;;
23404;SDS011;11875;49.356;2.718;2022-10-13T00:57:23;23.17;;;13.07;;
23404;SDS011;11875;49.356;2.718;2022-10-13T00:59:50;24.20;;;13.70;;
23404;SDS011;11875;49.356;2.718;2022-10-13T01:02:16;20.50;;;12.00;;
23404;SDS011;11875;49.356;2.718;2022-10-13T01:04:43;22.33;;;11.83;;
23404;SDS011;11875;49.356;2.718;2022-10-13T01:07:10;22.97;;;12.63;;
23404;SDS011;11875;49.356;2.718;2022-10-13T01:09:39;20.77;;;12.17;;
23404;SDS011;11875;49.356;2.718;2022-10-13T01:17:29;19.33;;;11.10;;
23404;SDS011;11875;49.356;2.718;2022-10-13T01:23:35;18.90;;;11.67;;
23404;SDS011;11875;49.356;2.718;2022-10-13T01:29:03;20.97;;;11.23;;
23404;SDS011;11875;49.356;2.718;2022-10-13T01:34:44;16.80;;;11.30;;
23404;SDS011;11875;49.356;2.718;2022-10-13T01:37:27;22.30;;;11.97;;
23404;SDS011;11875;49.356;2.718;2022-10-13T01:40:16;18.83;;;11.63;;
23404;SDS011;11875;49.356;2.718;2022-10-13T01:45:29;18.73;;;11.37;;
23404;SDS011;11875;49.356;2.718;2022-10-13T01:47:59;19.00;;;11.33;;
23404;SDS011;11875;49.356;2.718;2022-10-13T01:50:27;17.00;;;10.77;;
23404;SDS011;11875;49.356;2.718;2022-10-13T01:52:55;18.30;;;10.87;;
23404;SDS011;11875;49.356;2.718;2022-10-13T01:55:25;23.73;;;11.10;;
23404;SDS011;11875;49.356;2.718;2022-10-13T01:57:52;18.77;;;12.17;;
23404;SDS011;11875;49.356;2.718;2022-10-13T02:00:19;20.90;;;12.10;;
23404;SDS011;11875;49.356;2.718;2022-10-13T02:05:46;18.17;;;11.37;;
23404;SDS011;11875;49.356;2.718;2022-10-13T02:13:52;16.57;;;10.80;;
23404;SDS011;11875;49.356;2.718;2022-10-13T02:16:28;16.70;;;10.77;;
23404;SDS011;11875;49.356;2.718;2022-10-13T02:18:57;17.47;;;10.60;;
23404;SDS011;11875;49.356;2.718;2022-10-13T02:21:26;19.73;;;11.30;;
23404;SDS011;11875;49.356;2.718;2022-10-13T02:23:52;18.33;;;11.20;;
23404;SDS011;11875;49.356;2.718;2022-10-13T02:26:17;18.10;;;10.83;;
23404;SDS011;11875;49.356;2.718;2022-10-13T02:28:43;17.73;;;10.53;;
23404;SDS011;11875;49.356;2.718;2022-10-13T02:31:09;22.43;;;11.07;;
23404;SDS011;11875;49.356;2.718;2022-10-13T02:33:34;15.60;;;10.38;;
23404;SDS011;11875;49.356;2.718;2022-10-13T02:36:00;19.90;;;10.80;;
23404;SDS011;11875;49.356;2.718;2022-10-13T02:38:26;15.23;;;10.67;;
23404;SDS011;11875;49.356;2.718;2022-10-13T02:40:51;19.00;;;10.40;;
23404;SDS011;11875;49.356;2.718;2022-10-13T02:43:18;14.23;;;10.30;;
23404;SDS011;11875;49.356;2.718;2022-10-13T02:45:44;15.37;;;10.43;;
23404;SDS011;11875;49.356;2.718;2022-10-13T02:48:09;15.47;;;10.00;;
23404;SDS011;11875;49.356;2.718;2022-10-13T02:50:35;17.47;;;10.57;;
23404;SDS011;11875;49.356;2.718;2022-10-13T02:53:01;17.30;;;10.50;;
23404;SDS011;11875;49.356;2.718;2022-10-13T02:55:26;17.47;;;10.63;;
23404;SDS011;11875;49.356;2.718;2022-10-13T02:57:52;15.73;;;11.03;;
23404;SDS011;11875;49.356;2.718;2022-10-13T03:00:18;19.13;;;10.00;;
23404;SDS011;11875;49.356;2.718;2022-10-13T03:02:44;22.93;;;10.70;;
23404;SDS011;11875;49.356;2.718;2022-10-13T03:05:09;15.50;;;10.63;;
23404;SDS011;11875;49.356;2.718;2022-10-13T03:07:35;16.57;;;10.10;;
23404;SDS011;11875;49.356;2.718;2022-10-13T03:10:00;19.10;;;10.93;;
23404;SDS011;11875;49.356;2.718;2022-10-13T03:12:26;17.77;;;10.50;;
23404;SDS011;11875;49.356;2.718;2022-10-13T03:14:52;18.23;;;10.17;;
23404;SDS011;11875;49.356;2.718;2022-10-13T03:17:17;21.43;;;11.00;;
23404;SDS011;11875;49.356;2.718;2022-10-13T03:19:43;20.30;;;11.23;;
23404;SDS011;11875;49.356;2.718;2022-10-13T03:22:08;18.53;;;10.57;;
23404;SDS011;11875;49.356;2.718;2022-10-13T03:24:34;18.53;;;10.67;;
23404;SDS011;11875;49.356;2.718;2022-10-13T03:27:00;15.13;;;11.17;;
23404;SDS011;11875;49.356;2.718;2022-10-13T03:29:25;21.50;;;10.60;;
23404;SDS011;11875;49.356;2.718;2022-10-13T03:31:51;17.87;;;11.10;;
23404;SDS011;11875;49.356;2.718;2022-10-13T03:34:17;12.50;;;9.23;;
23404;SDS011;11875;49.356;2.718;2022-10-13T03:36:44;24.17;;;11.90;;
23404;SDS011;11875;49.356;2.718;2022-10-13T03:39:09;16.33;;;10.27;;
23404;SDS011;11875;49.356;2.718;2022-10-13T03:41:35;16.20;;;10.33;;
23404;SDS011;11875;49.356;2.718;2022-10-13T03:44:00;15.30;;;10.20;;
23404;SDS011;11875;49.356;2.718;2022-10-13T03:46:27;17.20;;;11.10;;
23404;SDS011;11875;49.356;2.718;2022-10-13T03:48:53;17.87;;;10.47;;
23404;SDS011;11875;49.356;2.718;2022-10-13T03:51:20;16.83;;;10.80;;
23404;SDS011;11875;49.356;2.718;2022-10-13T03:53:46;15.77;;;10.10;;
23404;SDS011;11875;49.356;2.718;2022-10-13T03:56:13;16.83;;;10.53;;
23404;SDS011;11875;49.356;2.718;2022-10-13T03:58:41;24.70;;;10.87;;
23404;SDS011;11875;49.356;2.718;2022-10-13T04:01:07;19.50;;;10.20;;
23404;SDS011;11875;49.356;2.718;2022-10-13T04:03:34;18.20;;;10.43;;
23404;SDS011;11875;49.356;2.718;2022-10-13T04:06:00;14.97;;;9.47;;
23404;SDS011;11875;49.356;2.718;2022-10-13T04:08:28;17.03;;;9.70;;
23404;SDS011;11875;49.356;2.718;2022-10-13T04:11:05;19.48;;;10.57;;
23404;SDS011;11875;49.356;2.718;2022-10-13T04:13:32;27.63;;;17.70;;
23404;SDS011;11875;49.356;2.718;2022-10-13T04:16:01;15.73;;;9.33;;
23404;SDS011;11875;49.356;2.718;2022-10-13T04:18:28;18.80;;;9.90;;
23404;SDS011;11875;49.356;2.718;2022-10-13T04:20:53;16.33;;;9.57;;
23404;SDS011;11875;49.356;2.718;2022-10-13T04:23:19;15.50;;;10.27;;
23404;SDS011;11875;49.356;2.718;2022-10-13T04:25:45;15.70;;;9.20;;
23404;SDS011;11875;49.356;2.718;2022-10-13T04:28:10;18.47;;;10.10;;
23404;SDS011;11875;49.356;2.718;2022-10-13T04:30:36;14.80;;;9.17;;
23404;SDS011;11875;49.356;2.718;2022-10-13T04:33:02;14.88;;;9.15;;
23404;SDS011;11875;49.356;2.718;2022-10-13T04:35:28;14.50;;;10.10;;
23404;SDS011;11875;49.356;2.718;2022-10-13T04:37:53;20.13;;;10.70;;
23404;SDS011;11875;49.356;2.718;2022-10-13T04:40:21;13.17;;;9.80;;
23404;SDS011;11875;49.356;2.718;2022-10-13T04:42:47;15.52;;;9.68;;
23404;SDS011;11875;49.356;2.718;2022-10-13T04:45:13;18.07;;;10.43;;
23404;SDS011;11875;49.356;2.718;2022-10-13T04:47:39;16.17;;;12.10;;
23404;SDS011;11875;49.356;2.718;2022-10-13T04:50:05;17.35;;;9.93;;
23404;SDS011;11875;49.356;2.718;2022-10-13T04:52:30;17.17;;;9.82;;
23404;SDS011;11875;49.356;2.718;2022-10-13T04:54:57;14.43;;;10.23;;
23404;SDS011;11875;49.356;2.718;2022-10-13T04:57:23;16.13;;;9.70;;
23404;SDS011;11875;49.356;2.718;2022-10-13T04:59:48;14.63;;;9.63;;
23404;SDS011;11875;49.356;2.718;2022-10-13T05:02:14;14.63;;;9.40;;
23404;SDS011;11875;49.356;2.718;2022-10-13T05:04:39;17.10;;;9.23;;
23404;SDS011;11875;49.356;2.718;2022-10-13T05:07:05;20.43;;;9.73;;
23404;SDS011;11875;49.356;2.718;2022-10-13T05:09:30;16.67;;;10.20;;
23404;SDS011;11875;49.356;2.718;2022-10-13T05:11:56;15.38;;;9.23;;
23404;SDS011;11875;49.356;2.718;2022-10-13T05:14:22;16.42;;;8.88;;
23404;SDS011;11875;49.356;2.718;2022-10-13T05:16:47;17.25;;;9.98;;
23404;SDS011;11875;49.356;2.718;2022-10-13T05:19:13;14.17;;;9.50;;
23404;SDS011;11875;49.356;2.718;2022-10-13T05:21:39;17.87;;;10.23;;
23404;SDS011;11875;49.356;2.718;2022-10-13T05:24:05;18.75;;;9.63;;
23404;SDS011;11875;49.356;2.718;2022-10-13T05:26:34;15.13;;;9.43;;
23404;SDS011;11875;49.356;2.718;2022-10-13T05:29:00;17.57;;;9.03;;
23404;SDS011;11875;49.356;2.718;2022-10-13T05:31:26;16.50;;;9.30;;
23404;SDS011;11875;49.356;2.718;2022-10-13T05:33:53;13.35;;;9.13;;
23404;SDS011;11875;49.356;2.718;2022-10-13T05:36:20;18.38;;;9.07;;
23404;SDS011;11875;49.356;2.718;2022-10-13T05:38:49;16.00;;;9.57;;
23404;SDS011;11875;49.356;2.718;2022-10-13T05:41:16;18.80;;;10.00;;
23404;SDS011;11875;49.356;2.718;2022-10-13T05:43:42;18.00;;;10.43;;
23404;SDS011;11875;49.356;2.718;2022-10-13T05:46:08;18.50;;;9.50;;
23404;SDS011;11875;49.356;2.718;2022-10-13T05:48:33;18.10;;;8.85;;
23404;SDS011;11875;49.356;2.718;2022-10-13T05:51:01;15.60;;;9.15;;
23404;SDS011;11875;49.356;2.718;2022-10-13T05:53:31;15.48;;;10.05;;
23404;SDS011;11875;49.356;2.718;2022-10-13T05:56:01;19.77;;;11.43;;
23404;SDS011;11875;49.356;2.718;2022-10-13T05:58:33;16.67;;;9.63;;
23404;SDS011;11875;49.356;2.718;2022-10-13T06:01:12;20.23;;;9.53;;
23404;SDS011;11875;49.356;2.718;2022-10-13T06:03:41;16.57;;;9.53;;
23404;SDS011;11875;49.356;2.718;2022-10-13T06:06:07;14.10;;;9.03;;
23404;SDS011;11875;49.356;2.718;2022-10-13T06:08:33;17.80;;;9.87;;
23404;SDS011;11875;49.356;2.718;2022-10-13T06:11:00;18.75;;;10.75;;
23404;SDS011;11875;49.356;2.718;2022-10-13T06:13:27;16.98;;;9.85;;
23404;SDS011;11875;49.356;2.718;2022-10-13T06:15:52;22.92;;;9.68;;
23404;SDS011;11875;49.356;2.718;2022-10-13T06:18:18;14.35;;;9.35;;
23404;SDS011;11875;49.356;2.718;2022-10-13T06:20:43;16.52;;;9.10;;
23404;SDS011;11875;49.356;2.718;2022-10-13T06:23:09;21.90;;;9.82;;
23404;SDS011;11875;49.356;2.718;2022-10-13T06:25:35;25.20;;;9.75;;
23404;SDS011;11875;49.356;2.718;2022-10-13T06:28:00;26.45;;;10.98;;
23404;SDS011;11875;49.356;2.718;2022-10-13T06:30:26;18.08;;;9.68;;
23404;SDS011;11875;49.356;2.718;2022-10-13T06:32:53;19.33;;;10.52;;
23404;SDS011;11875;49.356;2.718;2022-10-13T06:35:20;15.10;;;9.85;;
23404;SDS011;11875;49.356;2.718;2022-10-13T06:37:48;13.85;;;8.00;;
23404;SDS011;11875;49.356;2.718;2022-10-13T06:40:14;12.85;;;8.57;;
23404;SDS011;11875;49.356;2.718;2022-10-13T06:42:40;20.52;;;10.30;;
23404;SDS011;11875;49.356;2.718;2022-10-13T06:45:06;18.83;;;9.95;;
23404;SDS011;11875;49.356;2.718;2022-10-13T06:47:32;16.10;;;8.95;;
23404;SDS011;11875;49.356;2.718;2022-10-13T06:49:58;16.45;;;8.50;;
23404;SDS011;11875;49.356;2.718;2022-10-13T06:52:23;16.25;;;9.13;;
23404;SDS011;11875;49.356;2.718;2022-10-13T06:54:49;17.83;;;9.73;;
23404;SDS011;11875;49.356;2.718;2022-10-13T06:57:15;24.42;;;9.60;;
23404;SDS011;11875;49.356;2.718;2022-10-13T06:59:40;18.20;;;10.43;;
23404;SDS011;11875;49.356;2.718;2022-10-13T07:02:07;22.02;;;11.13;;
23404;SDS011;11875;49.356;2.718;2022-10-13T07:04:33;18.87;;;11.53;;
23404;SDS011;11875;49.356;2.718;2022-10-13T07:06:59;16.67;;;10.25;;
23404;SDS011;11875;49.356;2.718;2022-10-13T07:09:24;18.77;;;11.00;;
23404;SDS011;11875;49.356;2.718;2022-10-13T07:11:50;19.98;;;10.65;;
23404;SDS011;11875;49.356;2.718;2022-10-13T07:14:16;20.45;;;10.13;;
23404;SDS011;11875;49.356;2.718;2022-10-13T07:16:41;17.00;;;10.60;;
23404;SDS011;11875;49.356;2.718;2022-10-13T07:19:07;16.65;;;10.30;;
23404;SDS011;11875;49.356;2.718;2022-10-13T07:21:32;19.15;;;10.35;;
23404;SDS011;11875;49.356;2.718;2022-10-13T07:24:00;21.35;;;9.80;;
23404;SDS011;11875;49.356;2.718;2022-10-13T07:26:26;17.25;;;9.38;;
23404;SDS011;11875;49.356;2.718;2022-10-13T07:28:51;20.08;;;8.88;;
23404;SDS011;11875;49.356;2.718;2022-10-13T07:31:18;16.00;;;8.85;;
23404;SDS011;11875;49.356;2.718;2022-10-13T07:33:45;15.00;;;8.95;;
23404;SDS011;11875;49.356;2.718;2022-10-13T07:36:13;15.93;;;8.80;;
23404;SDS011;11875;49.356;2.718;2022-10-13T07:38:39;15.85;;;8.68;;
23404;SDS011;11875;49.356;2.718;2022-10-13T07:41:06;11.05;;;7.72;;
23404;SDS011;11875;49.356;2.718;2022-10-13T07:43:33;15.27;;;8.20;;
23404;SDS011;11875;49.356;2.718;2022-10-13T07:46:00;17.10;;;8.88;;
23404;SDS011;11875;49.356;2.718;2022-10-13T07:48:29;13.45;;;8.05;;
23404;SDS011;11875;49.356;2.718;2022-10-13T07:50:55;14.85;;;7.93;;
23404;SDS011;11875;49.356;2.718;2022-10-13T07:53:21;14.15;;;8.02;;
23404;SDS011;11875;49.356;2.718;2022-10-13T07:55:46;10.75;;;7.68;;
23404;SDS011;11875;49.356;2.718;2022-10-13T07:58:12;15.68;;;8.77;;
23404;SDS011;11875;49.356;2.718;2022-10-13T08:00:38;13.43;;;8.32;;
23404;SDS011;11875;49.356;2.718;2022-10-13T08:03:04;14.95;;;7.88;;
23404;SDS011;11875;49.356;2.718;2022-10-13T08:05:29;14.18;;;8.20;;
23404;SDS011;11875;49.356;2.718;2022-10-13T08:07:55;12.77;;;8.02;;
23404;SDS011;11875;49.356;2.718;2022-10-13T08:10:21;12.68;;;7.80;;
23404;SDS011;11875;49.356;2.718;2022-10-13T08:12:47;13.05;;;7.85;;
23404;SDS011;11875;49.356;2.718;2022-10-13T08:15:12;15.27;;;7.82;;
23404;SDS011;11875;49.356;2.718;2022-10-13T08:17:38;15.05;;;8.13;;
23404;SDS011;11875;49.356;2.718;2022-10-13T08:20:04;16.42;;;8.23;;
23404;SDS011;11875;49.356;2.718;2022-10-13T08:22:31;14.68;;;8.60;;
23404;SDS011;11875;49.356;2.718;2022-10-13T08:24:58;17.92;;;8.80;;
23404;SDS011;11875;49.356;2.718;2022-10-13T08:27:25;13.32;;;7.85;;
23404;SDS011;11875;49.356;2.718;2022-10-13T08:29:53;16.52;;;8.50;;
23404;SDS011;11875;49.356;2.718;2022-10-13T08:32:20;11.88;;;7.38;;
23404;SDS011;11875;49.356;2.718;2022-10-13T08:34:46;13.48;;;6.30;;
23404;SDS011;11875;49.356;2.718;2022-10-13T08:37:13;14.90;;;6.22;;
23404;SDS011;11875;49.356;2.718;2022-10-13T08:39:40;14.32;;;6.20;;
23404;SDS011;11875;49.356;2.718;2022-10-13T08:42:16;10.68;;;5.88;;
23404;SDS011;11875;49.356;2.718;2022-10-13T08:47:45;12.02;;;5.78;;
23404;SDS011;11875;49.356;2.718;2022-10-13T08:50:15;9.07;;;6.05;;
23404;SDS011;11875;49.356;2.718;2022-10-13T08:55:24;9.68;;;6.50;;
23404;SDS011;11875;49.356;2.718;2022-10-13T08:57:58;9.43;;;6.45;;
23404;SDS011;11875;49.356;2.718;2022-10-13T09:00:26;13.93;;;6.25;;
23404;SDS011;11875;49.356;2.718;2022-10-13T09:02:53;14.20;;;5.72;;
23404;SDS011;11875;49.356;2.718;2022-10-13T09:05:36;12.63;;;5.65;;
23404;SDS011;11875;49.356;2.718;2022-10-13T09:08:14;9.48;;;5.70;;
23404;SDS011;11875;49.356;2.718;2022-10-13T09:10:49;9.88;;;5.75;;
23404;SDS011;11875;49.356;2.718;2022-10-13T09:13:16;15.23;;;6.30;;
23404;SDS011;11875;49.356;2.718;2022-10-13T09:15:46;10.00;;;5.95;;
23404;SDS011;11875;49.356;2.718;2022-10-13T09:18:14;10.98;;;5.82;;
23404;SDS011;11875;49.356;2.718;2022-10-13T09:20:40;10.38;;;5.32;;
23404;SDS011;11875;49.356;2.718;2022-10-13T09:23:16;13.45;;;5.88;;
23404;SDS011;11875;49.356;2.718;2022-10-13T09:25:45;15.25;;;5.40;;
23404;SDS011;11875;49.356;2.718;2022-10-13T09:33:36;9.27;;;5.80;;
23404;SDS011;11875;49.356;2.718;2022-10-13T09:38:28;11.60;;;5.32;;
23404;SDS011;11875;49.356;2.718;2022-10-13T09:40:58;10.75;;;5.20;;
23404;SDS011;11875;49.356;2.718;2022-10-13T09:43:31;8.88;;;5.32;;
23404;SDS011;11875;49.356;2.718;2022-10-13T09:46:03;11.85;;;4.97;;
23404;SDS011;11875;49.356;2.718;2022-10-13T09:48:48;7.03;;;4.45;;
23404;SDS011;11875;49.356;2.718;2022-10-13T09:51:49;9.40;;;4.18;;
23404;SDS011;11875;49.356;2.718;2022-10-13T09:54:34;12.73;;;4.38;;
23404;SDS011;11875;49.356;2.718;2022-10-13T09:57:10;11.75;;;4.78;;
23404;SDS011;11875;49.356;2.718;2022-10-13T10:00:16;17.60;;;9.63;;
23404;SDS011;11875;49.356;2.718;2022-10-13T10:05:55;7.22;;;4.30;;
23404;SDS011;11875;49.356;2.718;2022-10-13T10:11:12;12.68;;;4.22;;
23404;SDS011;11875;49.356;2.718;2022-10-13T10:13:41;11.02;;;4.32;;
23404;SDS011;11875;49.356;2.718;2022-10-13T10:16:22;10.68;;;4.53;;
23404;SDS011;11875;49.356;2.718;2022-10-13T10:19:05;8.93;;;4.40;;
23404;SDS011;11875;49.356;2.718;2022-10-13T10:22:15;7.22;;;3.92;;
23404;SDS011;11875;49.356;2.718;2022-10-13T10:27:45;8.93;;;3.97;;
23404;SDS011;11875;49.356;2.718;2022-10-13T10:30:36;10.23;;;3.63;;
23404;SDS011;11875;49.356;2.718;2022-10-13T10:33:10;7.03;;;3.47;;
23404;SDS011;11875;49.356;2.718;2022-10-13T10:46:23;7.63;;;4.40;;
23404;SDS011;11875;49.356;2.718;2022-10-13T10:48:53;8.40;;;3.53;;
23404;SDS011;11875;49.356;2.718;2022-10-13T10:51:25;7.00;;;3.10;;
23404;SDS011;11875;49.356;2.718;2022-10-13T10:56:50;10.75;;;3.63;;
23404;SDS011;11875;49.356;2.718;2022-10-13T11:07:09;8.18;;;2.95;;
23404;SDS011;11875;49.356;2.718;2022-10-13T11:15:09;41.33;;;26.27;;
23404;SDS011;11875;49.356;2.718;2022-10-13T11:17:35;10.68;;;5.93;;
23404;SDS011;11875;49.356;2.718;2022-10-13T11:25:36;8.55;;;4.82;;
23404;SDS011;11875;49.356;2.718;2022-10-13T11:30:48;9.00;;;3.13;;
23404;SDS011;11875;49.356;2.718;2022-10-13T11:33:31;6.25;;;2.80;;
23404;SDS011;11875;49.356;2.718;2022-10-13T11:39:07;7.88;;;3.05;;
23404;SDS011;11875;49.356;2.718;2022-10-13T11:44:26;7.13;;;2.47;;
23404;SDS011;11875;49.356;2.718;2022-10-13T11:52:29;7.20;;;2.72;;
23404;SDS011;11875;49.356;2.718;2022-10-13T11:55:18;5.00;;;2.55;;
23404;SDS011;11875;49.356;2.718;2022-10-13T11:57:58;10.57;;;5.63;;
23404;SDS011;11875;49.356;2.718;2022-10-13T12:01:16;8.77;;;4.32;;
23404;SDS011;11875;49.356;2.718;2022-10-13T12:03:42;21.05;;;6.47;;
23404;SDS011;11875;49.356;2.718;2022-10-13T12:06:21;16.75;;;4.45;;
23404;SDS011;11875;49.356;2.718;2022-10-13T12:08:59;11.35;;;2.70;;
23404;SDS011;11875;49.356;2.718;2022-10-13T12:11:28;8.48;;;3.67;;
23404;SDS011;11875;49.356;2.718;2022-10-13T12:13:57;12.82;;;4.50;;
23404;SDS011;11875;49.356;2.718;2022-10-13T12:16:24;8.95;;;3.67;;
23404;SDS011;11875;49.356;2.718;2022-10-13T12:18:50;15.27;;;5.93;;
23404;SDS011;11875;49.356;2.718;2022-10-13T12:21:17;12.00;;;5.00;;
23404;SDS011;11875;49.356;2.718;2022-10-13T12:23:48;16.20;;;5.15;;
23404;SDS011;11875;49.356;2.718;2022-10-13T12:26:16;11.05;;;4.75;;
23404;SDS011;11875;49.356;2.718;2022-10-13T12:31:25;8.35;;;3.88;;
23404;SDS011;11875;49.356;2.718;2022-10-13T12:34:02;15.45;;;8.23;;
23404;SDS011;11875;49.356;2.718;2022-10-13T12:38:57;11.90;;;5.90;;
23404;SDS011;11875;49.356;2.718;2022-10-13T12:41:27;13.77;;;4.22;;
23404;SDS011;11875;49.356;2.718;2022-10-13T12:43:54;7.70;;;3.33;;
23404;SDS011;11875;49.356;2.718;2022-10-13T12:46:33;6.28;;;2.53;;
23404;SDS011;11875;49.356;2.718;2022-10-13T12:49:11;7.18;;;3.00;;
23404;SDS011;11875;49.356;2.718;2022-10-13T12:51:52;6.55;;;3.03;;
23404;SDS011;11875;49.356;2.718;2022-10-13T12:54:38;6.53;;;2.80;;
23404;SDS011;11875;49.356;2.718;2022-10-13T12:57:15;7.82;;;3.20;;
23404;SDS011;11875;49.356;2.718;2022-10-13T12:59:43;7.88;;;3.35;;
23404;SDS011;11875;49.356;2.718;2022-10-13T13:02:19;7.55;;;3.38;;
23404;SDS011;11875;49.356;2.718;2022-10-13T13:04:56;5.40;;;2.95;;
23404;SDS011;11875;49.356;2.718;2022-10-13T13:12:33;7.43;;;3.90;;
23404;SDS011;11875;49.356;2.718;2022-10-13T13:17:53;10.70;;;5.28;;
23404;SDS011;11875;49.356;2.718;2022-10-13T13:20:29;10.23;;;3.70;;
23404;SDS011;11875;49.356;2.718;2022-10-13T13:22:56;9.23;;;3.47;;
23404;SDS011;11875;49.356;2.718;2022-10-13T13:25:22;8.00;;;3.45;;
23404;SDS011;11875;49.356;2.718;2022-10-13T13:27:48;6.88;;;2.55;;
23404;SDS011;11875;49.356;2.718;2022-10-13T13:30:15;5.88;;;2.83;;
23404;SDS011;11875;49.356;2.718;2022-10-13T13:32:43;6.05;;;3.17;;
23404;SDS011;11875;49.356;2.718;2022-10-13T13:35:08;6.57;;;3.88;;
23404;SDS011;11875;49.356;2.718;2022-10-13T13:37:45;5.95;;;3.42;;
23404;SDS011;11875;49.356;2.718;2022-10-13T13:40:16;11.48;;;8.10;;
23404;SDS011;11875;49.356;2.718;2022-10-13T13:42:42;6.07;;;3.60;;
23404;SDS011;11875;49.356;2.718;2022-10-13T13:45:11;10.68;;;5.03;;
23404;SDS011;11875;49.356;2.718;2022-10-13T13:47:41;11.80;;;4.38;;
23404;SDS011;11875;49.356;2.718;2022-10-13T13:50:14;10.65;;;3.70;;
23404;SDS011;11875;49.356;2.718;2022-10-13T13:52:41;7.88;;;4.93;;
23404;SDS011;11875;49.356;2.718;2022-10-13T13:55:06;7.38;;;4.53;;
23404;SDS011;11875;49.356;2.718;2022-10-13T13:57:33;7.43;;;4.07;;
23404;SDS011;11875;49.356;2.718;2022-10-13T13:59:58;7.57;;;4.07;;
23404;SDS011;11875;49.356;2.718;2022-10-13T14:02:24;8.75;;;4.95;;
23404;SDS011;11875;49.356;2.718;2022-10-13T14:04:49;9.25;;;4.55;;
23404;SDS011;11875;49.356;2.718;2022-10-13T14:07:15;6.93;;;5.07;;
23404;SDS011;11875;49.356;2.718;2022-10-13T14:09:41;6.55;;;4.60;;
23404;SDS011;11875;49.356;2.718;2022-10-13T14:12:07;7.15;;;4.25;;
23404;SDS011;11875;49.356;2.718;2022-10-13T14:14:33;7.30;;;4.53;;
23404;SDS011;11875;49.356;2.718;2022-10-13T14:16:59;8.30;;;4.30;;
23404;SDS011;11875;49.356;2.718;2022-10-13T14:19:25;14.00;;;8.57;;
23404;SDS011;11875;49.356;2.718;2022-10-13T14:21:51;7.07;;;4.70;;
23404;SDS011;11875;49.356;2.718;2022-10-13T14:24:17;5.38;;;4.50;;
23404;SDS011;11875;49.356;2.718;2022-10-13T14:26:43;9.68;;;4.75;;
23404;SDS011;11875;49.356;2.718;2022-10-13T14:29:09;8.75;;;4.93;;
23404;SDS011;11875;49.356;2.718;2022-10-13T14:31:34;6.82;;;4.75;;
23404;SDS011;11875;49.356;2.718;2022-10-13T14:34:00;11.00;;;4.40;;
23404;SDS011;11875;49.356;2.718;2022-10-13T14:36:26;8.68;;;4.25;;
23404;SDS011;11875;49.356;2.718;2022-10-13T14:38:51;6.70;;;3.83;;
23404;SDS011;11875;49.356;2.718;2022-10-13T14:41:18;11.18;;;4.45;;
23404;SDS011;11875;49.356;2.718;2022-10-13T14:43:44;5.90;;;3.92;;
23404;SDS011;11875;49.356;2.718;2022-10-13T14:46:10;4.72;;;3.42;;
23404;SDS011;11875;49.356;2.718;2022-10-13T14:48:36;5.68;;;3.13;;
23404;SDS011;11875;49.356;2.718;2022-10-13T14:51:05;5.40;;;2.80;;
23404;SDS011;11875;49.356;2.718;2022-10-13T14:53:35;3.97;;;3.20;;
23404;SDS011;11875;49.356;2.718;2022-10-13T14:56:12;4.00;;;3.22;;
23404;SDS011;11875;49.356;2.718;2022-10-13T14:58:41;3.80;;;3.10;;
23404;SDS011;11875;49.356;2.718;2022-10-13T15:01:07;4.40;;;3.10;;
23404;SDS011;11875;49.356;2.718;2022-10-13T15:03:32;4.25;;;3.13;;
23404;SDS011;11875;49.356;2.718;2022-10-13T15:05:58;3.67;;;2.75;;
23404;SDS011;11875;49.356;2.718;2022-10-13T15:08:23;4.97;;;3.00;;
23404;SDS011;11875;49.356;2.718;2022-10-13T15:10:59;3.13;;;2.65;;
23404;SDS011;11875;49.356;2.718;2022-10-13T15:13:28;4.03;;;2.70;;
23404;SDS011;11875;49.356;2.718;2022-10-13T15:15:54;8.77;;;3.85;;
23404;SDS011;11875;49.356;2.718;2022-10-13T15:18:20;5.47;;;2.80;;
23404;SDS011;11875;49.356;2.718;2022-10-13T15:20:46;3.47;;;2.85;;
23404;SDS011;11875;49.356;2.718;2022-10-13T15:23:13;5.35;;;3.20;;
23404;SDS011;11875;49.356;2.718;2022-10-13T15:25:47;8.13;;;4.00;;
23404;SDS011;11875;49.356;2.718;2022-10-13T15:28:18;20.13;;;18.40;;
23404;SDS011;11875;49.356;2.718;2022-10-13T15:30:44;6.43;;;4.03;;
23404;SDS011;11875;49.356;2.718;2022-10-13T15:33:10;7.47;;;4.68;;
23404;SDS011;11875;49.356;2.718;2022-10-13T15:35:36;5.20;;;3.20;;
23404;SDS011;11875;49.356;2.718;2022-10-13T15:38:01;5.63;;;3.00;;
23404;SDS011;11875;49.356;2.718;2022-10-13T15:40:27;3.65;;;2.97;;
23404;SDS011;11875;49.356;2.718;2022-10-13T15:42:52;6.45;;;4.95;;
23404;SDS011;11875;49.356;2.718;2022-10-13T15:45:18;3.90;;;3.17;;
23404;SDS011;11875;49.356;2.718;2022-10-13T15:47:44;4.70;;;3.70;;
23404;SDS011;11875;49.356;2.718;2022-10-13T15:50:09;4.35;;;3.38;;
23404;SDS011;11875;49.356;2.718;2022-10-13T15:52:38;9.05;;;6.43;;
23404;SDS011;11875;49.356;2.718;2022-10-13T15:55:04;5.32;;;3.70;;
23404;SDS011;11875;49.356;2.718;2022-10-13T15:57:31;7.85;;;4.20;;
23404;SDS011;11875;49.356;2.718;2022-10-13T15:59:56;5.78;;;3.85;;
23404;SDS011;11875;49.356;2.718;2022-10-13T16:02:22;5.40;;;4.10;;
23404;SDS011;11875;49.356;2.718;2022-10-13T16:04:48;8.20;;;3.78;;
23404;SDS011;11875;49.356;2.718;2022-10-13T16:07:14;5.35;;;4.18;;
23404;SDS011;11875;49.356;2.718;2022-10-13T16:09:39;12.32;;;7.80;;
23404;SDS011;11875;49.356;2.718;2022-10-13T16:12:05;5.60;;;4.90;;
23404;SDS011;11875;49.356;2.718;2022-10-13T16:14:31;8.32;;;5.28;;
23404;SDS011;11875;49.356;2.718;2022-10-13T16:16:56;8.70;;;4.95;;
23404;SDS011;11875;49.356;2.718;2022-10-13T16:19:22;5.88;;;4.03;;
23404;SDS011;11875;49.356;2.718;2022-10-13T16:21:47;5.40;;;4.88;;
23404;SDS011;11875;49.356;2.718;2022-10-13T16:24:13;7.78;;;5.47;;
23404;SDS011;11875;49.356;2.718;2022-10-13T16:26:39;8.93;;;6.57;;
23404;SDS011;11875;49.356;2.718;2022-10-13T16:29:04;6.63;;;5.20;;
23404;SDS011;11875;49.356;2.718;2022-10-13T16:31:30;7.82;;;5.32;;